createdAt,value
2019-03-26T00:01:39.722Z,4.85
2019-03-26T00:04:07.936Z,6.90
2019-03-26T00:06:36.165Z,6.67
2019-03-26T00:09:07.341Z,5.00
2019-03-26T00:11:35.568Z,5.45
2019-03-26T00:14:03.892Z,5.50
2019-03-26T00:16:32.119Z,5.30
2019-03-26T00:19:19.797Z,5.25
2019-03-26T00:21:48.024Z,6.70
2019-03-26T00:24:16.241Z,4.85
2019-03-26T00:26:44.468Z,6.00
2019-03-26T00:29:12.683Z,5.53
2019-03-26T00:31:40.908Z,5.28
2019-03-26T00:34:18.632Z,5.30
2019-03-26T00:36:39.185Z,6.10
2019-03-26T00:39:07.675Z,4.70
2019-03-26T00:41:35.888Z,7.30
2019-03-26T00:44:04.127Z,5.58
2019-03-26T00:46:32.343Z,4.78
2019-03-26T00:49:00.842Z,5.70
2019-03-26T00:51:29.051Z,5.37
2019-03-26T00:53:57.288Z,5.65
2019-03-26T00:56:25.508Z,5.28
2019-03-26T00:58:53.739Z,5.25
2019-03-26T01:01:21.964Z,4.85
2019-03-26T01:03:50.195Z,5.30
2019-03-26T01:06:18.412Z,5.25
2019-03-26T01:08:46.645Z,5.12
2019-03-26T01:11:14.864Z,5.45
2019-03-26T01:13:43.104Z,5.60
2019-03-26T01:16:11.389Z,5.45
2019-03-26T01:18:39.624Z,6.70
2019-03-26T01:21:07.840Z,5.28
2019-03-26T01:23:36.076Z,5.62
2019-03-26T01:26:04.292Z,7.45
2019-03-26T01:28:32.604Z,6.35
2019-03-26T01:31:00.824Z,5.62
2019-03-26T01:33:29.136Z,6.12
2019-03-26T01:35:57.352Z,5.53
2019-03-26T01:38:45.017Z,5.42
2019-03-26T01:41:13.304Z,5.92
2019-03-26T01:43:41.867Z,8.05
2019-03-26T01:46:10.084Z,6.10
2019-03-26T01:48:38.317Z,5.95
2019-03-26T01:51:06.533Z,5.25
2019-03-26T01:53:34.796Z,4.85
2019-03-26T01:56:03.012Z,5.85
2019-03-26T01:58:31.248Z,5.90
2019-03-26T02:00:59.465Z,6.20
2019-03-26T02:03:27.704Z,6.00
2019-03-26T02:05:55.921Z,5.90
2019-03-26T02:08:24.158Z,6.95
2019-03-26T02:10:52.372Z,6.17
2019-03-26T02:13:20.610Z,5.62
2019-03-26T02:15:49.149Z,6.05
2019-03-26T02:18:17.464Z,5.92
2019-03-26T02:20:45.676Z,7.35
2019-03-26T02:23:33.341Z,6.67
2019-03-26T02:26:01.562Z,6.35
2019-03-26T02:28:29.972Z,6.67
2019-03-26T02:30:58.190Z,7.40
2019-03-26T02:33:26.421Z,7.37
2019-03-26T02:35:54.633Z,7.33
2019-03-26T02:38:42.554Z,7.55
2019-03-26T02:41:10.764Z,7.42
2019-03-26T02:43:39.000Z,6.10
2019-03-26T02:46:07.492Z,5.97
2019-03-26T02:48:35.713Z,8.48
2019-03-26T02:51:04.005Z,6.47
2019-03-26T02:53:32.236Z,7.12
2019-03-26T02:56:00.806Z,7.03
2019-03-26T02:58:29.032Z,7.00
2019-03-26T03:01:16.692Z,6.47
2019-03-26T03:03:44.901Z,6.25
2019-03-26T03:06:13.187Z,8.10
2019-03-26T03:08:41.568Z,6.80
2019-03-26T03:11:09.800Z,9.18
2019-03-26T03:13:38.019Z,7.92
2019-03-26T03:16:06.258Z,8.48
2019-03-26T03:18:34.474Z,7.45
2019-03-26T03:21:02.705Z,10.05
2019-03-26T03:23:30.914Z,6.90
2019-03-26T03:25:59.146Z,7.83
2019-03-26T03:28:27.356Z,6.90
2019-03-26T03:30:55.586Z,6.78
2019-03-26T03:33:23.817Z,10.78
2019-03-26T03:35:53.171Z,7.55
2019-03-26T03:38:21.869Z,7.90
2019-03-26T03:40:50.102Z,9.05
2019-03-26T03:43:18.325Z,8.80
2019-03-26T03:45:46.536Z,7.72
2019-03-26T03:48:14.769Z,7.72
2019-03-26T03:50:42.994Z,6.62
2019-03-26T03:53:11.215Z,6.95
2019-03-26T03:55:39.434Z,8.53
2019-03-26T03:58:07.666Z,8.03
2019-03-26T04:00:37.335Z,7.65
2019-03-26T04:03:05.718Z,7.33
2019-03-26T04:05:34.471Z,7.22
2019-03-26T04:08:02.716Z,7.65
2019-03-26T04:10:30.925Z,8.28
2019-03-26T04:12:59.225Z,7.67
2019-03-26T04:15:27.614Z,8.03
2019-03-26T04:17:55.976Z,8.08
2019-03-26T04:20:24.358Z,7.30
2019-03-26T04:22:52.580Z,8.10
2019-03-26T04:25:20.796Z,10.53
2019-03-26T04:27:49.025Z,8.50
2019-03-26T04:30:23.141Z,9.25
2019-03-26T04:32:51.368Z,8.25
2019-03-26T04:35:19.621Z,9.00
2019-03-26T04:37:47.888Z,13.03
2019-03-26T04:40:16.121Z,8.95
2019-03-26T04:42:44.338Z,8.00
2019-03-26T04:45:12.569Z,7.50
2019-03-26T04:47:40.826Z,9.03
2019-03-26T04:50:09.093Z,12.03
2019-03-26T04:52:37.312Z,8.43
2019-03-26T04:55:05.718Z,8.85
2019-03-26T04:57:33.935Z,8.93
2019-03-26T05:00:02.161Z,9.95
2019-03-26T05:02:30.376Z,10.20
2019-03-26T05:04:58.611Z,11.38
2019-03-26T05:07:26.826Z,9.00
2019-03-26T05:09:55.052Z,8.90
2019-03-26T05:12:23.360Z,9.50
2019-03-26T05:14:51.588Z,12.70
2019-03-26T05:17:20.099Z,9.58
2019-03-26T05:19:48.324Z,12.68
2019-03-26T05:22:24.206Z,10.25
2019-03-26T05:24:46.804Z,8.63
2019-03-26T05:27:15.019Z,11.30
2019-03-26T05:29:43.256Z,11.12
2019-03-26T05:32:11.799Z,12.43
2019-03-26T05:34:40.285Z,12.70
2019-03-26T05:37:08.500Z,13.40
2019-03-26T05:39:36.736Z,10.65
2019-03-26T05:42:04.958Z,11.00
2019-03-26T05:44:33.196Z,12.45
2019-03-26T05:47:01.884Z,11.43
2019-03-26T05:49:30.303Z,9.90
2019-03-26T05:51:58.523Z,14.65
2019-03-26T05:54:27.010Z,10.32
2019-03-26T05:56:55.229Z,16.90
2019-03-26T05:59:23.465Z,13.50
2019-03-26T06:01:51.679Z,14.15
2019-03-26T06:04:19.944Z,11.85
2019-03-26T06:06:48.164Z,16.70
2019-03-26T06:09:16.392Z,12.45
2019-03-26T06:11:44.688Z,11.25
2019-03-26T06:14:12.920Z,12.90
2019-03-26T06:16:41.140Z,13.48
2019-03-26T06:19:09.665Z,11.18
2019-03-26T06:21:37.884Z,11.73
2019-03-26T06:24:06.122Z,14.28
2019-03-26T06:26:34.364Z,15.95
2019-03-26T06:29:02.877Z,14.05
2019-03-26T06:31:31.109Z,13.25
2019-03-26T06:33:59.329Z,16.02
2019-03-26T06:36:27.560Z,16.15
2019-03-26T06:38:55.780Z,14.85
2019-03-26T06:41:24.012Z,13.68
2019-03-26T06:43:52.248Z,13.30
2019-03-26T06:46:20.465Z,12.30
2019-03-26T06:48:48.688Z,14.85
2019-03-26T06:51:16.925Z,16.10
2019-03-26T06:53:45.149Z,27.93
2019-03-26T06:56:13.721Z,27.65
2019-03-26T06:58:42.013Z,20.65
2019-03-26T07:01:10.273Z,13.83
2019-03-26T07:03:38.496Z,14.40
2019-03-26T07:06:06.969Z,12.65
2019-03-26T07:08:35.521Z,13.08
2019-03-26T07:11:03.750Z,13.98
2019-03-26T07:13:32.569Z,13.58
2019-03-26T07:16:02.122Z,12.98
2019-03-26T07:18:30.345Z,15.72
2019-03-26T07:20:58.576Z,13.08
2019-03-26T07:23:26.833Z,13.03
2019-03-26T07:25:55.385Z,12.65
2019-03-26T07:28:23.609Z,15.00
2019-03-26T07:31:11.274Z,12.20
2019-03-26T07:33:39.493Z,12.05
2019-03-26T07:36:07.965Z,13.35
2019-03-26T07:38:36.192Z,16.48
2019-03-26T07:41:04.424Z,14.05
2019-03-26T07:43:32.650Z,13.60
2019-03-26T07:46:01.156Z,12.82
2019-03-26T07:48:29.373Z,14.28
2019-03-26T07:50:57.593Z,13.80
2019-03-26T07:53:25.824Z,14.38
2019-03-26T07:55:54.040Z,12.47
2019-03-26T07:58:22.282Z,11.83
2019-03-26T08:00:50.503Z,10.53
2019-03-26T08:03:21.080Z,12.90
2019-03-26T08:05:48.687Z,10.88
2019-03-26T08:08:16.908Z,13.20
2019-03-26T08:10:45.129Z,15.18
2019-03-26T08:13:13.369Z,15.53
2019-03-26T08:15:41.619Z,17.70
2019-03-26T08:18:09.892Z,13.50
2019-03-26T08:20:38.112Z,14.28
2019-03-26T08:23:06.412Z,14.15
2019-03-26T08:25:34.663Z,14.60
2019-03-26T08:28:05.085Z,13.50
2019-03-26T08:30:33.128Z,16.10
2019-03-26T08:33:01.367Z,16.93
2019-03-26T08:35:29.593Z,15.05
2019-03-26T08:38:11.317Z,16.90
2019-03-26T08:40:27.780Z,16.93
2019-03-26T08:42:56.009Z,17.20
2019-03-26T08:45:24.229Z,13.18
2019-03-26T08:47:52.456Z,14.98
2019-03-26T08:50:20.676Z,17.62
2019-03-26T08:52:48.912Z,17.42
2019-03-26T08:55:17.132Z,15.50
2019-03-26T08:57:45.364Z,14.65
2019-03-26T09:00:13.854Z,14.80
2019-03-26T09:02:42.085Z,13.08
2019-03-26T09:05:10.327Z,16.23
2019-03-26T09:07:38.608Z,15.53
2019-03-26T09:10:09.172Z,14.18
2019-03-26T09:12:39.548Z,18.32
2019-03-26T09:15:09.496Z,10.90
2019-03-26T09:17:38.168Z,12.88
2019-03-26T09:20:08.065Z,14.40
2019-03-26T09:22:36.296Z,14.65
2019-03-26T09:25:06.148Z,11.08
2019-03-26T09:27:34.384Z,10.75
2019-03-26T09:30:02.680Z,13.45
2019-03-26T09:32:30.916Z,13.00
2019-03-26T09:34:59.140Z,17.48
2019-03-26T09:37:27.372Z,14.58
2019-03-26T09:39:55.593Z,13.68
2019-03-26T09:42:23.822Z,15.45
2019-03-26T09:44:52.047Z,13.53
2019-03-26T09:47:20.277Z,12.13
2019-03-26T09:49:48.497Z,13.95
2019-03-26T09:52:16.977Z,11.57
2019-03-26T09:54:45.212Z,13.10
2019-03-26T09:57:13.739Z,12.63
2019-03-26T09:59:42.216Z,13.95
2019-03-26T10:02:10.441Z,14.73
2019-03-26T10:04:38.672Z,14.60
2019-03-26T10:07:06.888Z,16.77
2019-03-26T10:09:35.116Z,14.43
2019-03-26T10:12:03.419Z,11.80
2019-03-26T10:14:31.648Z,13.95
2019-03-26T10:16:59.872Z,13.80
2019-03-26T10:19:28.105Z,14.83
2019-03-26T10:21:56.335Z,12.75
2019-03-26T10:24:24.567Z,11.88
2019-03-26T10:26:52.788Z,12.60
2019-03-26T10:29:30.098Z,12.00
2019-03-26T10:31:50.972Z,11.80
2019-03-26T10:34:19.522Z,12.15
2019-03-26T10:36:48.109Z,11.45
2019-03-26T10:39:16.341Z,11.10
2019-03-26T10:41:44.567Z,10.88
2019-03-26T10:44:12.800Z,13.30
2019-03-26T10:46:44.376Z,11.68
2019-03-26T10:49:10.981Z,12.30
2019-03-26T10:51:39.202Z,13.00
2019-03-26T10:54:07.432Z,11.00
2019-03-26T10:56:35.956Z,12.53
2019-03-26T10:59:04.488Z,10.55
2019-03-26T11:01:32.782Z,11.85
2019-03-26T11:04:01.013Z,11.03
2019-03-26T11:06:48.662Z,12.35
2019-03-26T11:09:24.058Z,12.18
2019-03-26T11:11:46.842Z,13.88
2019-03-26T11:14:15.400Z,10.45
2019-03-26T11:16:43.618Z,9.70
2019-03-26T11:19:11.852Z,10.68
2019-03-26T11:21:40.070Z,13.32
2019-03-26T11:24:08.303Z,9.63
2019-03-26T11:26:36.519Z,10.15
2019-03-26T11:29:04.755Z,10.88
2019-03-26T11:31:32.968Z,13.03
2019-03-26T11:34:01.207Z,10.03
2019-03-26T11:36:29.420Z,10.60
2019-03-26T11:38:57.664Z,9.28
2019-03-26T11:41:26.126Z,10.20
2019-03-26T11:43:54.358Z,12.58
2019-03-26T11:46:22.576Z,9.38
2019-03-26T11:48:51.060Z,11.63
2019-03-26T11:51:19.276Z,10.80
2019-03-26T11:53:47.537Z,10.72
2019-03-26T11:56:15.808Z,10.08
2019-03-26T11:58:44.036Z,9.83
2019-03-26T12:01:12.540Z,9.98
2019-03-26T12:03:40.777Z,12.07
2019-03-26T12:06:09.000Z,13.00
2019-03-26T12:08:37.228Z,12.45
2019-03-26T12:11:05.452Z,9.85
2019-03-26T12:13:33.681Z,9.73
2019-03-26T12:16:01.900Z,10.30
2019-03-26T12:18:30.143Z,8.70
2019-03-26T12:20:58.354Z,9.70
2019-03-26T12:23:26.572Z,10.32
2019-03-26T12:25:54.804Z,11.08
2019-03-26T12:28:23.024Z,9.10
2019-03-26T12:30:51.553Z,9.90
2019-03-26T12:33:19.781Z,9.40
2019-03-26T12:35:48.025Z,11.20
2019-03-26T12:38:17.804Z,10.88
2019-03-26T12:40:46.033Z,8.78
2019-03-26T12:43:14.277Z,10.30
2019-03-26T12:45:42.860Z,12.93
2019-03-26T12:48:11.088Z,8.90
2019-03-26T12:50:39.317Z,8.95
2019-03-26T12:53:08.464Z,10.68
2019-03-26T12:55:36.802Z,11.10
2019-03-26T12:58:05.029Z,10.53
2019-03-26T13:00:33.250Z,11.12
2019-03-26T13:03:01.755Z,7.75
2019-03-26T13:05:29.997Z,8.88
2019-03-26T13:07:58.228Z,8.88
2019-03-26T13:10:26.448Z,11.00
2019-03-26T13:12:54.682Z,9.45
2019-03-26T13:15:22.925Z,11.38
2019-03-26T13:17:51.165Z,11.00
2019-03-26T13:20:19.378Z,9.30
2019-03-26T13:22:47.599Z,8.23
2019-03-26T13:25:15.830Z,8.80
2019-03-26T13:27:44.048Z,8.93
2019-03-26T13:30:12.282Z,8.83
2019-03-26T13:32:40.821Z,9.70
2019-03-26T13:35:09.312Z,11.38
2019-03-26T13:37:37.530Z,12.78
2019-03-26T13:40:06.032Z,11.48
2019-03-26T13:42:34.254Z,9.45
2019-03-26T13:45:02.486Z,9.53
2019-03-26T13:47:30.992Z,10.20
2019-03-26T13:49:59.350Z,12.37
2019-03-26T13:52:27.628Z,9.30
2019-03-26T13:54:55.864Z,11.75
2019-03-26T13:57:24.080Z,9.83
2019-03-26T13:59:52.376Z,11.15
2019-03-26T14:02:20.605Z,9.15
2019-03-26T14:04:48.836Z,9.25
2019-03-26T14:07:17.060Z,8.80
2019-03-26T14:09:45.297Z,13.53
2019-03-26T14:12:13.524Z,13.95
2019-03-26T14:14:41.768Z,11.55
2019-03-26T14:17:09.988Z,10.35
2019-03-26T14:19:38.225Z,7.25
2019-03-26T14:22:06.440Z,7.65
2019-03-26T14:24:34.865Z,9.85
2019-03-26T14:27:03.098Z,8.10
2019-03-26T14:29:31.333Z,8.45
2019-03-26T14:31:59.580Z,8.05
2019-03-26T14:34:27.816Z,6.20
2019-03-26T14:36:56.036Z,5.45
2019-03-26T14:39:24.268Z,7.20
2019-03-26T14:41:52.488Z,7.28
2019-03-26T14:44:20.720Z,6.33
2019-03-26T14:46:49.208Z,4.92
2019-03-26T14:49:17.444Z,7.45
2019-03-26T14:51:45.669Z,6.20
2019-03-26T14:54:13.921Z,8.78
2019-03-26T14:56:42.137Z,5.55
2019-03-26T14:59:10.372Z,5.45
2019-03-26T15:01:38.592Z,4.72
2019-03-26T15:04:07.069Z,6.35
2019-03-26T15:06:35.302Z,5.72
2019-03-26T15:09:04.621Z,3.90
2019-03-26T15:11:32.856Z,3.98
2019-03-26T15:14:01.255Z,4.60
2019-03-26T15:16:29.485Z,5.78
2019-03-26T15:18:58.032Z,4.62
2019-03-26T15:21:26.268Z,6.95
2019-03-26T15:23:54.797Z,5.83
2019-03-26T15:26:23.035Z,4.08
2019-03-26T15:28:51.252Z,5.05
2019-03-26T15:31:19.497Z,4.50
2019-03-26T15:33:47.705Z,2.75
2019-03-26T15:36:15.936Z,2.37
2019-03-26T15:38:44.241Z,3.95
2019-03-26T15:41:21.571Z,4.45
2019-03-26T15:43:42.676Z,3.67
2019-03-26T15:46:11.232Z,2.70
2019-03-26T15:48:39.458Z,2.75
2019-03-26T15:51:07.980Z,4.35
2019-03-26T15:53:36.691Z,4.00
2019-03-26T15:56:04.929Z,3.20
2019-03-26T15:58:33.460Z,2.77
2019-03-26T16:01:01.695Z,5.95
2019-03-26T16:03:29.913Z,5.10
2019-03-26T16:05:58.457Z,3.70
2019-03-26T16:08:26.673Z,7.75
2019-03-26T16:10:54.952Z,4.95
2019-03-26T16:13:23.221Z,5.15
2019-03-26T16:15:51.875Z,3.08
2019-03-26T16:18:20.250Z,2.67
2019-03-26T16:20:48.481Z,5.05
2019-03-26T16:23:16.706Z,4.50
2019-03-26T16:25:44.932Z,5.42
2019-03-26T16:28:13.154Z,6.95
2019-03-26T16:30:41.384Z,8.28
2019-03-26T16:33:09.605Z,5.67
2019-03-26T16:35:40.198Z,9.28
2019-03-26T16:38:08.107Z,6.65
2019-03-26T16:40:36.336Z,5.25
2019-03-26T16:43:04.865Z,3.67
2019-03-26T16:45:33.187Z,4.03
2019-03-26T16:48:01.401Z,6.28
2019-03-26T16:50:29.632Z,5.85
2019-03-26T16:52:57.881Z,5.45
2019-03-26T16:55:26.457Z,8.23
2019-03-26T16:57:54.673Z,6.12
2019-03-26T17:00:31.188Z,7.53
2019-03-26T17:03:00.247Z,5.10
2019-03-26T17:05:28.484Z,6.47
2019-03-26T17:07:56.704Z,7.85
2019-03-26T17:10:24.936Z,7.53
2019-03-26T17:12:53.164Z,10.40
2019-03-26T17:15:21.409Z,10.00
2019-03-26T17:17:49.675Z,6.45
2019-03-26T17:20:17.910Z,4.20
2019-03-26T17:22:46.232Z,8.98
2019-03-26T17:25:14.877Z,9.93
2019-03-26T17:27:43.112Z,8.15
2019-03-26T17:30:11.322Z,7.80
2019-03-26T17:32:39.552Z,7.42
2019-03-26T17:35:08.244Z,10.72
2019-03-26T17:37:36.793Z,8.05
2019-03-26T17:40:05.285Z,7.78
2019-03-26T17:42:33.885Z,10.58
2019-03-26T17:45:02.240Z,7.97
2019-03-26T17:47:30.463Z,7.42
2019-03-26T17:49:58.684Z,9.30
2019-03-26T17:52:27.252Z,10.05
2019-03-26T17:54:55.780Z,8.95
2019-03-26T17:57:24.069Z,15.40
2019-03-26T17:59:52.296Z,14.20
2019-03-26T18:02:20.548Z,12.25
2019-03-26T18:04:48.768Z,13.05
2019-03-26T18:07:17.340Z,14.47
2019-03-26T18:09:45.560Z,12.82
2019-03-26T18:12:13.806Z,11.00
2019-03-26T18:14:42.361Z,15.13
2019-03-26T18:17:10.593Z,18.67
2019-03-26T18:19:38.808Z,15.60
2019-03-26T18:22:07.044Z,18.65
2019-03-26T18:24:35.268Z,16.57
2019-03-26T18:27:03.508Z,23.18
2019-03-26T18:29:31.724Z,17.65
2019-03-26T18:31:59.960Z,17.95
2019-03-26T18:34:28.191Z,18.00
2019-03-26T18:36:56.464Z,14.13
2019-03-26T18:39:24.701Z,16.52
2019-03-26T18:41:53.008Z,17.62
2019-03-26T18:44:21.224Z,15.32
2019-03-26T18:46:49.455Z,15.83
2019-03-26T18:49:17.686Z,16.50
2019-03-26T18:51:45.914Z,18.73
2019-03-26T18:54:14.127Z,14.73
2019-03-26T18:56:42.363Z,26.50
2019-03-26T18:59:10.584Z,17.15
2019-03-26T19:01:38.825Z,19.82
2019-03-26T19:04:07.048Z,19.85
2019-03-26T19:06:35.276Z,23.50
2019-03-26T19:09:04.301Z,17.52
2019-03-26T19:11:32.844Z,19.55
2019-03-26T19:14:01.068Z,23.47
2019-03-26T19:16:29.305Z,21.62
2019-03-26T19:18:57.525Z,21.77
2019-03-26T19:21:25.769Z,22.75
2019-03-26T19:24:03.445Z,23.05
2019-03-26T19:26:23.952Z,15.75
2019-03-26T19:28:52.199Z,19.02
2019-03-26T19:31:20.418Z,19.90
2019-03-26T19:33:48.678Z,17.92
2019-03-26T19:36:16.920Z,17.00
2019-03-26T19:38:45.389Z,20.70
2019-03-26T19:41:13.697Z,17.95
2019-03-26T19:43:41.943Z,22.48
2019-03-26T19:46:10.144Z,17.17
2019-03-26T19:48:38.385Z,19.15
2019-03-26T19:51:06.896Z,18.82
2019-03-26T19:53:35.476Z,18.35
2019-03-26T19:56:03.936Z,21.20
2019-03-26T19:58:32.240Z,15.13
2019-03-26T20:01:00.801Z,19.87
2019-03-26T20:03:29.114Z,19.60
2019-03-26T20:05:57.438Z,20.48
2019-03-26T20:08:25.667Z,17.82
2019-03-26T20:10:53.892Z,20.45
2019-03-26T20:13:24.691Z,20.70
2019-03-26T20:15:52.076Z,18.82
2019-03-26T20:18:20.307Z,17.87
2019-03-26T20:20:48.853Z,17.98
2019-03-26T20:23:17.133Z,17.52
2019-03-26T20:25:45.356Z,18.00
2019-03-26T20:28:13.617Z,16.97
2019-03-26T20:30:42.073Z,19.98
2019-03-26T20:33:10.328Z,20.25
2019-03-26T20:35:38.666Z,22.50
2019-03-26T20:38:06.907Z,25.23
2019-03-26T20:40:35.389Z,22.67
2019-03-26T20:43:03.662Z,23.77
2019-03-26T20:45:31.949Z,20.77
2019-03-26T20:48:00.184Z,25.23
2019-03-26T20:50:28.404Z,22.75
2019-03-26T20:52:56.650Z,20.48
2019-03-26T20:55:32.010Z,19.90
2019-03-26T20:58:00.896Z,21.45
2019-03-26T21:00:35.227Z,16.52
2019-03-26T21:03:03.456Z,19.12
2019-03-26T21:05:31.700Z,24.20
2019-03-26T21:07:59.941Z,19.92
2019-03-26T21:10:28.167Z,20.88
2019-03-26T21:12:56.428Z,21.33
2019-03-26T21:15:24.972Z,16.90
2019-03-26T21:17:53.221Z,22.13
2019-03-26T21:20:21.460Z,25.88
2019-03-26T21:22:49.697Z,26.07
2019-03-26T21:25:17.916Z,26.95
2019-03-26T21:27:46.169Z,25.45
2019-03-26T21:30:16.050Z,26.33
2019-03-26T21:32:44.471Z,25.27
2019-03-26T21:35:13.368Z,24.20
2019-03-26T21:37:41.607Z,21.30
2019-03-26T21:40:10.565Z,22.00
2019-03-26T21:42:39.089Z,23.92
2019-03-26T21:45:08.713Z,25.68
2019-03-26T21:47:36.949Z,32.42
2019-03-26T21:50:05.596Z,21.77
2019-03-26T21:52:33.860Z,21.97
2019-03-26T21:55:02.093Z,18.50
2019-03-26T21:57:30.353Z,20.23
2019-03-26T21:59:58.862Z,20.17
2019-03-26T22:02:27.097Z,17.45
2019-03-26T22:04:55.640Z,21.60
2019-03-26T22:07:24.201Z,26.35
2019-03-26T22:09:52.526Z,19.90
2019-03-26T22:12:21.078Z,18.30
2019-03-26T22:14:49.381Z,19.92
2019-03-26T22:17:17.625Z,23.80
2019-03-26T22:19:45.856Z,21.90
2019-03-26T22:22:14.370Z,19.67
2019-03-26T22:24:42.689Z,19.67
2019-03-26T22:27:10.915Z,21.12
2019-03-26T22:29:39.172Z,22.32
2019-03-26T22:32:07.424Z,20.68
2019-03-26T22:34:35.657Z,22.98
2019-03-26T22:37:03.965Z,17.45
2019-03-26T22:39:32.213Z,20.65
2019-03-26T22:42:00.431Z,20.00
2019-03-26T22:44:31.695Z,23.20
2019-03-26T22:47:00.227Z,22.95
2019-03-26T22:49:28.457Z,23.50
2019-03-26T22:51:56.684Z,22.62
2019-03-26T22:54:25.009Z,22.25
2019-03-26T22:56:53.293Z,23.83
2019-03-26T22:59:21.542Z,22.90
2019-03-26T23:01:49.753Z,21.52
2019-03-26T23:04:20.143Z,20.68
2019-03-26T23:06:48.504Z,19.85
2019-03-26T23:09:16.761Z,21.93
2019-03-26T23:11:44.999Z,22.30
2019-03-26T23:14:14.424Z,19.62
2019-03-26T23:16:42.640Z,19.67
2019-03-26T23:19:10.888Z,19.12
2019-03-26T23:21:39.121Z,21.57
2019-03-26T23:24:07.361Z,17.67
2019-03-26T23:26:35.588Z,17.32
2019-03-26T23:29:03.844Z,23.35
2019-03-26T23:31:32.053Z,20.37
2019-03-26T23:34:00.316Z,20.70
2019-03-26T23:36:28.804Z,20.08
2019-03-26T23:38:57.037Z,17.40
2019-03-26T23:41:25.256Z,17.62
2019-03-26T23:43:53.487Z,23.30
2019-03-26T23:46:21.732Z,20.82
2019-03-26T23:48:49.968Z,19.50
2019-03-26T23:51:18.485Z,22.05
2019-03-26T23:53:46.715Z,21.02
2019-03-26T23:56:14.944Z,19.42
2019-03-26T23:58:43.208Z,21.15
